createdAt,value
2023-04-04T00:00:22.505Z,907.00
2023-04-04T00:01:22.497Z,850.00
2023-04-04T00:02:22.517Z,749.00
2023-04-04T00:03:22.674Z,665.00
2023-04-04T00:04:22.563Z,633.00
2023-04-04T00:05:22.523Z,565.00
2023-04-04T00:06:22.535Z,497.00
2023-04-04T00:07:22.563Z,494.00
2023-04-04T00:08:22.595Z,505.00
2023-04-04T00:09:22.651Z,499.00
2023-04-04T00:10:22.695Z,502.00
2023-04-04T00:11:22.726Z,548.00
2023-04-04T00:12:24.788Z,550.00
2023-04-04T00:13:22.733Z,551.00
2023-04-04T00:14:22.738Z,557.00
2023-04-04T00:15:22.733Z,578.00
2023-04-04T00:16:22.756Z,606.00
2023-04-04T00:17:22.722Z,612.00
2023-04-04T00:18:22.713Z,488.00
2023-04-04T00:19:22.722Z,432.00
2023-04-04T00:20:22.682Z,430.00
2023-04-04T00:21:22.671Z,440.00
2023-04-04T00:22:22.656Z,430.00
2023-04-04T00:23:22.657Z,400.00
2023-04-04T00:24:22.643Z,460.00
2023-04-04T00:25:22.658Z,529.00
2023-04-04T00:26:22.632Z,558.00
2023-04-04T00:27:22.621Z,531.00
2023-04-04T00:28:22.618Z,518.00
2023-04-04T00:29:22.618Z,500.00
2023-04-04T00:30:22.599Z,493.00
2023-04-04T00:31:22.655Z,476.00
2023-04-04T00:32:22.622Z,480.00
2023-04-04T00:33:22.652Z,477.00
2023-04-04T00:34:22.569Z,515.00
2023-04-04T00:35:22.562Z,512.00
2023-04-04T00:36:22.571Z,518.00
2023-04-04T00:37:22.597Z,537.00
2023-04-04T00:38:22.574Z,550.00
2023-04-04T00:39:22.533Z,540.00
2023-04-04T00:40:22.565Z,535.00
2023-04-04T00:41:22.538Z,552.00
2023-04-04T00:42:22.511Z,591.00
2023-04-04T00:43:22.510Z,562.00
2023-04-04T00:44:22.522Z,443.00
2023-04-04T00:45:22.636Z,445.00
2023-04-04T00:46:22.501Z,499.00
2023-04-04T00:47:22.589Z,523.00
2023-04-04T00:48:22.491Z,504.00
2023-04-04T00:49:22.468Z,538.00
2023-04-04T00:50:22.473Z,533.00
2023-04-04T00:51:22.454Z,598.00
2023-04-04T00:52:22.477Z,647.00
2023-04-04T00:53:22.455Z,697.00
2023-04-04T00:54:22.450Z,623.00
2023-04-04T00:55:22.454Z,689.00
2023-04-04T00:56:22.425Z,741.00
2023-04-04T00:57:22.412Z,586.00
2023-04-04T00:58:22.422Z,500.00
2023-04-04T00:59:22.432Z,474.00
2023-04-04T01:00:22.398Z,490.00
2023-04-04T01:01:22.504Z,502.00
2023-04-04T01:02:22.385Z,563.00
2023-04-04T01:03:22.400Z,671.00
2023-04-04T01:04:22.417Z,774.00
2023-04-04T01:05:22.366Z,817.00
2023-04-04T01:06:22.360Z,799.00
2023-04-04T01:07:22.340Z,767.00
2023-04-04T01:08:22.344Z,832.00
2023-04-04T01:09:22.337Z,796.00
2023-04-04T01:10:22.345Z,723.00
2023-04-04T01:11:22.359Z,676.00
2023-04-04T01:12:22.322Z,666.00
2023-04-04T01:13:22.330Z,620.00
2023-04-04T01:14:22.308Z,578.00
2023-04-04T01:15:22.309Z,563.00
2023-04-04T01:16:22.334Z,611.00
2023-04-04T01:17:22.280Z,685.00
2023-04-04T01:18:22.272Z,887.00
2023-04-04T01:19:22.259Z,1107.00
2023-04-04T01:20:22.249Z,982.00
2023-04-04T01:21:22.238Z,1143.00
2023-04-04T01:22:22.272Z,1302.00
2023-04-04T01:23:22.244Z,1344.00
2023-04-04T01:24:22.233Z,1290.00
2023-04-04T01:25:22.231Z,1155.00
2023-04-04T01:26:22.219Z,1025.00
2023-04-04T01:27:22.224Z,1042.00
2023-04-04T01:28:22.222Z,1038.00
2023-04-04T01:29:22.318Z,943.00
2023-04-04T01:30:22.184Z,1008.00
2023-04-04T01:31:22.212Z,885.00
2023-04-04T01:32:22.187Z,789.00
2023-04-04T01:33:22.161Z,665.00
2023-04-04T01:34:22.167Z,622.00
2023-04-04T01:35:22.144Z,604.00
2023-04-04T01:36:22.183Z,606.00
2023-04-04T01:37:22.186Z,561.00
2023-04-04T01:38:22.215Z,502.00
2023-04-04T01:39:22.219Z,504.00
2023-04-04T01:40:22.269Z,499.00
2023-04-04T01:41:22.260Z,500.00
2023-04-04T01:42:22.288Z,553.00
2023-04-04T01:43:22.342Z,593.00
2023-04-04T01:44:22.346Z,643.00
2023-04-04T01:45:22.348Z,680.00
2023-04-04T01:46:22.479Z,847.00
2023-04-04T01:47:22.415Z,898.00
2023-04-04T01:48:22.461Z,1134.00
2023-04-04T01:49:22.458Z,1078.00
2023-04-04T01:50:22.533Z,866.00
2023-04-04T01:51:22.516Z,671.00
2023-04-04T01:52:22.566Z,644.00
2023-04-04T01:53:22.602Z,574.00
2023-04-04T01:54:22.643Z,540.00
2023-04-04T01:55:22.655Z,587.00
2023-04-04T01:56:22.702Z,555.00
2023-04-04T01:57:22.754Z,597.00
2023-04-04T01:58:22.777Z,604.00
2023-04-04T01:59:22.919Z,540.00
2023-04-04T02:00:22.870Z,569.00
2023-04-04T02:01:22.959Z,626.00
2023-04-04T02:02:22.965Z,630.00
2023-04-04T02:03:22.977Z,574.00
2023-04-04T02:04:23.078Z,500.00
2023-04-04T02:05:23.068Z,476.00
2023-04-04T02:06:23.116Z,500.00
2023-04-04T02:07:23.144Z,514.00
2023-04-04T02:08:23.174Z,566.00
2023-04-04T02:09:23.206Z,610.00
2023-04-04T02:10:23.283Z,661.00
2023-04-04T02:11:23.297Z,713.00
2023-04-04T02:12:23.347Z,761.00
2023-04-04T02:13:23.394Z,952.00
2023-04-04T02:14:23.429Z,1056.00
2023-04-04T02:15:23.483Z,869.00
2023-04-04T02:16:23.660Z,773.00
2023-04-04T02:17:23.587Z,745.00
2023-04-04T02:18:23.616Z,642.00
2023-04-04T02:19:23.665Z,617.00
2023-04-04T02:20:23.682Z,701.00
2023-04-04T02:21:23.730Z,848.00
2023-04-04T02:22:23.793Z,994.00
2023-04-04T02:23:23.808Z,987.00
2023-04-04T02:24:23.868Z,1018.00
2023-04-04T02:25:23.911Z,1113.00
2023-04-04T02:26:23.983Z,1103.00
2023-04-04T02:27:24.024Z,1259.00
2023-04-04T02:28:24.111Z,1321.00
2023-04-04T02:29:24.144Z,1343.00
2023-04-04T02:30:24.227Z,1382.00
2023-04-04T02:31:24.323Z,1314.00
2023-04-04T02:32:24.390Z,1150.00
2023-04-04T02:33:24.493Z,1115.00
2023-04-04T02:34:24.441Z,1186.00
2023-04-04T02:35:24.495Z,1377.00
2023-04-04T02:36:24.551Z,1576.00
2023-04-04T02:37:24.619Z,1661.00
2023-04-04T02:38:24.660Z,1823.00
2023-04-04T02:39:24.702Z,1884.00
2023-04-04T02:40:24.727Z,1896.00
2023-04-04T02:41:24.735Z,2088.00
2023-04-04T02:42:24.726Z,2179.00
2023-04-04T02:43:24.731Z,2245.00
2023-04-04T02:44:24.726Z,2178.00
2023-04-04T02:45:24.731Z,2139.00
2023-04-04T02:46:24.789Z,2076.00
2023-04-04T02:47:24.786Z,2181.00
2023-04-04T02:48:24.743Z,2450.00
2023-04-04T02:49:24.780Z,2747.00
2023-04-04T02:50:24.780Z,3130.00
2023-04-04T02:51:24.805Z,3328.00
2023-04-04T02:52:24.796Z,3330.00
2023-04-04T02:53:24.814Z,3330.00
2023-04-04T02:54:24.822Z,3405.00
2023-04-04T02:55:24.873Z,3501.00
2023-04-04T02:56:24.879Z,3506.00
2023-04-04T02:57:24.873Z,3385.00
2023-04-04T02:58:24.912Z,3335.00
2023-04-04T02:59:24.954Z,3132.00
2023-04-04T03:00:24.894Z,2959.00
2023-04-04T03:01:24.941Z,2802.00
2023-04-04T03:02:24.989Z,2668.00
2023-04-04T03:03:25.040Z,2745.00
2023-04-04T03:04:24.949Z,3125.00
2023-04-04T03:05:24.989Z,3538.00
2023-04-04T03:06:24.973Z,3764.00
2023-04-04T03:07:24.993Z,3986.00
2023-04-04T03:08:25.027Z,4330.00
2023-04-04T03:09:25.062Z,4893.00
2023-04-04T03:10:25.091Z,5249.00
2023-04-04T03:11:25.124Z,5071.00
2023-04-04T03:12:25.157Z,5049.00
2023-04-04T03:13:25.180Z,4712.00
2023-04-04T03:14:25.198Z,4416.00
2023-04-04T03:15:25.231Z,4052.00
2023-04-04T03:16:25.299Z,3760.00
2023-04-04T03:17:25.307Z,3582.00
2023-04-04T03:18:25.332Z,3564.00
2023-04-04T03:19:25.360Z,3763.00
2023-04-04T03:20:25.359Z,4380.00
2023-04-04T03:21:25.369Z,4691.00
2023-04-04T03:22:25.404Z,5026.00
2023-04-04T03:23:25.444Z,5408.00
2023-04-04T03:24:25.492Z,5531.00
2023-04-04T03:25:25.536Z,5653.00
2023-04-04T03:26:25.568Z,5703.00
2023-04-04T03:27:25.593Z,5625.00
2023-04-04T03:28:25.633Z,5406.00
2023-04-04T03:29:25.694Z,5256.00
2023-04-04T03:30:25.804Z,5047.00
2023-04-04T03:31:25.812Z,4904.00
2023-04-04T03:32:25.870Z,4734.00
2023-04-04T03:33:25.882Z,4696.00
2023-04-04T03:34:25.952Z,4808.00
2023-04-04T03:35:26.020Z,5097.00
2023-04-04T03:36:26.066Z,5497.00
2023-04-04T03:37:26.138Z,5631.00
2023-04-04T03:38:26.188Z,5665.00
2023-04-04T03:39:26.231Z,5794.00
2023-04-04T03:40:26.214Z,5856.00
2023-04-04T03:41:26.281Z,6040.00
2023-04-04T03:42:26.358Z,6429.00
2023-04-04T03:43:26.393Z,6654.00
2023-04-04T03:44:26.434Z,6618.00
2023-04-04T03:45:26.475Z,6497.00
2023-04-04T03:46:26.598Z,6238.00
2023-04-04T03:47:26.563Z,6041.00
2023-04-04T03:48:26.624Z,5863.00
2023-04-04T03:49:26.679Z,5969.00
2023-04-04T03:50:26.748Z,6196.00
2023-04-04T03:51:26.808Z,6448.00
2023-04-04T03:52:26.836Z,6758.00
2023-04-04T03:53:26.880Z,6912.00
2023-04-04T03:54:26.936Z,7247.00
2023-04-04T03:55:26.988Z,7460.00
2023-04-04T03:56:27.036Z,7400.00
2023-04-04T03:57:27.078Z,7360.00
2023-04-04T03:58:27.149Z,7449.00
2023-04-04T03:59:27.215Z,7414.00
2023-04-04T04:00:27.236Z,7399.00
2023-04-04T04:01:27.325Z,7381.00
2023-04-04T04:02:27.454Z,7078.00
2023-04-04T04:03:27.576Z,6603.00
2023-04-04T04:04:27.470Z,6206.00
2023-04-04T04:05:27.502Z,5879.00
2023-04-04T04:06:27.597Z,5879.00
2023-04-04T04:07:27.628Z,6143.00
2023-04-04T04:08:27.653Z,6562.00
2023-04-04T04:09:27.672Z,6867.00
2023-04-04T04:10:27.710Z,7063.00
2023-04-04T04:11:27.797Z,7157.00
2023-04-04T04:12:27.853Z,6958.00
2023-04-04T04:13:27.886Z,6551.00
2023-04-04T04:14:27.950Z,6292.00
2023-04-04T04:15:28.038Z,6045.00
2023-04-04T04:16:28.153Z,5911.00
2023-04-04T04:17:28.162Z,6006.00
2023-04-04T04:18:28.223Z,6243.00
2023-04-04T04:19:28.267Z,6651.00
2023-04-04T04:20:28.304Z,6975.00
2023-04-04T04:21:28.355Z,7205.00
2023-04-04T04:22:28.422Z,7292.00
2023-04-04T04:23:28.498Z,7246.00
2023-04-04T04:24:28.563Z,6949.00
2023-04-04T04:25:28.557Z,6932.00
2023-04-04T04:26:28.630Z,7218.00
2023-04-04T04:27:28.682Z,7365.00
2023-04-04T04:28:33.467Z,6956.00
2023-04-04T04:29:30.900Z,6540.00
2023-04-04T04:30:28.925Z,6176.00
2023-04-04T04:31:29.009Z,5904.00
2023-04-04T04:32:29.022Z,6276.00
2023-04-04T04:33:29.070Z,6973.00
2023-04-04T04:34:29.207Z,7443.00
2023-04-04T04:35:29.198Z,7872.00
2023-04-04T04:36:29.315Z,8103.00
2023-04-04T04:37:29.283Z,8298.00
2023-04-04T04:38:29.347Z,8633.00
2023-04-04T04:39:29.402Z,8434.00
2023-04-04T04:40:29.433Z,8341.00
2023-04-04T04:41:29.474Z,8139.00
2023-04-04T04:42:29.452Z,8330.00
2023-04-04T04:43:29.483Z,8847.00
2023-04-04T04:44:29.518Z,8797.00
2023-04-04T04:45:29.545Z,8701.00
2023-04-04T04:46:29.588Z,8815.00
2023-04-04T04:47:29.612Z,8731.00
2023-04-04T04:48:29.597Z,8553.00
2023-04-04T04:49:29.683Z,8110.00
2023-04-04T04:50:29.649Z,7937.00
2023-04-04T04:51:29.658Z,7916.00
2023-04-04T04:52:29.668Z,7937.00
2023-04-04T04:53:29.671Z,8020.00
2023-04-04T04:54:29.709Z,7987.00
2023-04-04T04:55:29.697Z,7739.00
2023-04-04T04:56:29.715Z,7760.00
2023-04-04T04:57:29.723Z,7803.00
2023-04-04T04:58:29.791Z,7826.00
2023-04-04T04:59:29.894Z,7917.00
2023-04-04T05:00:29.796Z,8439.00
2023-04-04T05:01:29.834Z,8513.00
2023-04-04T05:02:29.925Z,8253.00
2023-04-04T05:03:29.839Z,7857.00
2023-04-04T05:04:29.809Z,7631.00
2023-04-04T05:05:29.813Z,7583.00
2023-04-04T05:06:29.844Z,7910.00
2023-04-04T05:07:29.847Z,8183.00
2023-04-04T05:08:29.840Z,8152.00
2023-04-04T05:09:29.847Z,8114.00
2023-04-04T05:10:29.964Z,8164.00
2023-04-04T05:11:29.966Z,8352.00
2023-04-04T05:12:29.961Z,8683.00
2023-04-04T05:13:29.973Z,8915.00
2023-04-04T05:14:29.971Z,9151.00
2023-04-04T05:15:29.984Z,9406.00
2023-04-04T05:16:30.057Z,9584.00
2023-04-04T05:17:30.006Z,9832.00
2023-04-04T05:18:29.976Z,9956.00
2023-04-04T05:19:30.018Z,10050.00
2023-04-04T05:20:30.070Z,10237.00
2023-04-04T05:21:30.111Z,10402.00
2023-04-04T05:22:30.163Z,10439.00
2023-04-04T05:23:30.210Z,10517.00
2023-04-04T05:24:30.241Z,10553.00
2023-04-04T05:25:30.236Z,10699.00
2023-04-04T05:26:30.276Z,11116.00
2023-04-04T05:27:30.263Z,11717.00
2023-04-04T05:28:30.257Z,12147.00
2023-04-04T05:29:30.270Z,12506.00
2023-04-04T05:30:30.293Z,12771.00
2023-04-04T05:31:30.341Z,12815.00
2023-04-04T05:32:30.381Z,12830.00
2023-04-04T05:33:30.320Z,12739.00
2023-04-04T05:34:30.348Z,12814.00
2023-04-04T05:35:30.358Z,12781.00
2023-04-04T05:36:30.388Z,12974.00
2023-04-04T05:37:30.345Z,13139.00
2023-04-04T05:38:30.384Z,13106.00
2023-04-04T05:39:30.419Z,12651.00
2023-04-04T05:40:30.439Z,12341.00
2023-04-04T05:41:30.513Z,11875.00
2023-04-04T05:42:30.511Z,11634.00
2023-04-04T05:43:30.543Z,11332.00
2023-04-04T05:44:30.531Z,11123.00
2023-04-04T05:45:30.599Z,10965.00
2023-04-04T05:46:30.658Z,10657.00
2023-04-04T05:47:30.620Z,10459.00
2023-04-04T05:48:30.601Z,10212.00
2023-04-04T05:49:30.631Z,10048.00
2023-04-04T05:50:30.638Z,10445.00
2023-04-04T05:51:30.662Z,10796.00
2023-04-04T05:52:30.647Z,10953.00
2023-04-04T05:53:30.659Z,10813.00
2023-04-04T05:54:30.670Z,10485.00
2023-04-04T05:55:30.721Z,10378.00
2023-04-04T05:56:30.695Z,10257.00
2023-04-04T05:57:30.694Z,10228.00
2023-04-04T05:58:30.709Z,10137.00
2023-04-04T05:59:30.907Z,9957.00
2023-04-04T06:00:30.737Z,9777.00
2023-04-04T06:01:30.757Z,9421.00
2023-04-04T06:02:30.816Z,9189.00
2023-04-04T06:03:30.938Z,9058.00
2023-04-04T06:04:30.770Z,8864.00
2023-04-04T06:05:30.841Z,8830.00
2023-04-04T06:06:30.787Z,8855.00
2023-04-04T06:07:30.785Z,8550.00
2023-04-04T06:08:33.564Z,8249.00
2023-04-04T06:09:31.811Z,8108.00
2023-04-04T06:10:30.768Z,7803.00
2023-04-04T06:11:30.791Z,7472.00
2023-04-04T06:12:30.777Z,7249.00
2023-04-04T06:13:30.763Z,7072.00
2023-04-04T06:14:30.759Z,6823.00
2023-04-04T06:15:30.752Z,6713.00
2023-04-04T06:16:30.866Z,6684.00
2023-04-04T06:17:30.816Z,6727.00
2023-04-04T06:18:30.787Z,6835.00
2023-04-04T06:19:30.859Z,6838.00
2023-04-04T06:20:30.928Z,6767.00
2023-04-04T06:21:30.989Z,6697.00
2023-04-04T06:22:31.052Z,6645.00
2023-04-04T06:23:31.100Z,6539.00
2023-04-04T06:24:31.181Z,6598.00
2023-04-04T06:25:31.222Z,6757.00
2023-04-04T06:26:31.250Z,6746.00
2023-04-04T06:27:31.287Z,6877.00
2023-04-04T06:28:31.313Z,6875.00
2023-04-04T06:29:31.375Z,6743.00
2023-04-04T06:30:31.376Z,6468.00
2023-04-04T06:31:31.449Z,6347.00
2023-04-04T06:32:31.454Z,6266.00
2023-04-04T06:33:31.434Z,6078.00
2023-04-04T06:34:31.454Z,5779.00
2023-04-04T06:35:31.462Z,5680.00
2023-04-04T06:36:31.534Z,5620.00
2023-04-04T06:37:31.505Z,5415.00
2023-04-04T06:38:31.546Z,5285.00
2023-04-04T06:39:31.600Z,4972.00
2023-04-04T06:40:31.582Z,4660.00
2023-04-04T06:41:31.608Z,4508.00
2023-04-04T06:42:31.604Z,4607.00
2023-04-04T06:43:31.621Z,4802.00
2023-04-04T06:44:31.626Z,4767.00
2023-04-04T06:45:31.616Z,4815.00
2023-04-04T06:46:31.742Z,4882.00
2023-04-04T06:47:31.683Z,4745.00
2023-04-04T06:48:31.677Z,4628.00
2023-04-04T06:49:31.686Z,4517.00
2023-04-04T06:50:31.705Z,4404.00
2023-04-04T06:51:31.719Z,4324.00
2023-04-04T06:52:31.705Z,4412.00
2023-04-04T06:53:31.718Z,4686.00
2023-04-04T06:54:31.758Z,4809.00
2023-04-04T06:55:31.825Z,4768.00
2023-04-04T06:56:31.878Z,4940.00
2023-04-04T06:57:31.911Z,4964.00
2023-04-04T06:58:31.970Z,4896.00
2023-04-04T06:59:32.072Z,4755.00
2023-04-04T07:00:32.077Z,4348.00
2023-04-04T07:01:32.169Z,4133.00
2023-04-04T07:02:32.312Z,4147.00
2023-04-04T07:03:32.274Z,4182.00
2023-04-04T07:04:32.333Z,3982.00
2023-04-04T07:05:32.420Z,3826.00
2023-04-04T07:06:32.451Z,3722.00
2023-04-04T07:07:32.517Z,3767.00
2023-04-04T07:08:36.301Z,3909.00
2023-04-04T07:09:32.644Z,3809.00
2023-04-04T07:10:32.568Z,3743.00
2023-04-04T07:11:32.543Z,3627.00
2023-04-04T07:12:32.534Z,3567.00
2023-04-04T07:13:32.528Z,3707.00
2023-04-04T07:14:32.534Z,3826.00
2023-04-04T07:15:32.539Z,3928.00
2023-04-04T07:16:32.538Z,3896.00
2023-04-04T07:17:32.533Z,3853.00
2023-04-04T07:18:32.511Z,3954.00
2023-04-04T07:19:32.516Z,3803.00
2023-04-04T07:20:32.505Z,3702.00
2023-04-04T07:21:32.510Z,3764.00
2023-04-04T07:22:32.478Z,3832.00
2023-04-04T07:23:32.485Z,4015.00
2023-04-04T07:24:32.462Z,3912.00
2023-04-04T07:25:32.463Z,3677.00
2023-04-04T07:26:32.477Z,3526.00
2023-04-04T07:27:32.457Z,3380.00
2023-04-04T07:28:32.452Z,3249.00
2023-04-04T07:29:32.450Z,3136.00
2023-04-04T07:30:32.450Z,3256.00
2023-04-04T07:31:32.469Z,3548.00
2023-04-04T07:32:32.500Z,3312.00
2023-04-04T07:33:32.429Z,2976.00
2023-04-04T07:34:32.467Z,2620.00
2023-04-04T07:35:32.513Z,2483.00
2023-04-04T07:36:32.490Z,2299.00
2023-04-04T07:37:32.510Z,2143.00
2023-04-04T07:38:32.503Z,2041.00
2023-04-04T07:39:32.510Z,1743.00
2023-04-04T07:40:32.523Z,1789.00
2023-04-04T07:41:32.514Z,1873.00
2023-04-04T07:42:32.535Z,1942.00
2023-04-04T07:43:32.548Z,2061.00
2023-04-04T07:44:32.539Z,2030.00
2023-04-04T07:45:32.550Z,1974.00
2023-04-04T07:46:32.684Z,1882.00
2023-04-04T07:47:32.597Z,1515.00
2023-04-04T07:48:32.582Z,1316.00
2023-04-04T07:49:32.614Z,1339.00
2023-04-04T07:50:32.627Z,1480.00
2023-04-04T07:51:32.620Z,1393.00
2023-04-04T07:52:32.617Z,1330.00
2023-04-04T07:53:32.603Z,1303.00
2023-04-04T07:54:32.600Z,1448.00
2023-04-04T07:55:32.618Z,1305.00
2023-04-04T07:56:32.655Z,1183.00
2023-04-04T07:57:32.673Z,1071.00
2023-04-04T07:58:32.731Z,1139.00
2023-04-04T07:59:32.801Z,1444.00
2023-04-04T08:00:32.867Z,1754.00
2023-04-04T08:01:32.912Z,1672.00
2023-04-04T08:02:33.016Z,1647.00
2023-04-04T08:03:33.238Z,1626.00
2023-04-04T08:04:33.132Z,1561.00
2023-04-04T08:05:33.149Z,1437.00
2023-04-04T08:06:33.188Z,1415.00
2023-04-04T08:07:33.258Z,1445.00
2023-04-04T08:08:33.281Z,1468.00
2023-04-04T08:09:33.352Z,1383.00
2023-04-04T08:10:33.414Z,1230.00
2023-04-04T08:11:33.487Z,1281.00
2023-04-04T08:12:36.873Z,1327.00
2023-04-04T08:13:33.531Z,1484.00
2023-04-04T08:14:33.535Z,1602.00
2023-04-04T08:15:33.521Z,1799.00
2023-04-04T08:16:33.514Z,1817.00
2023-04-04T08:17:33.510Z,1709.00
2023-04-04T08:18:33.516Z,1516.00
2023-04-04T08:19:33.483Z,1355.00
2023-04-04T08:20:33.479Z,1257.00
2023-04-04T08:21:33.482Z,1097.00
2023-04-04T08:22:33.460Z,692.00
2023-04-04T08:23:33.451Z,479.00
2023-04-04T08:24:33.466Z,413.00
2023-04-04T08:25:33.444Z,400.00
2023-04-04T08:26:33.434Z,430.00
2023-04-04T08:27:33.429Z,476.00
2023-04-04T08:28:33.456Z,524.00
2023-04-04T08:29:33.460Z,552.00
2023-04-04T08:30:33.423Z,571.00
2023-04-04T08:31:33.445Z,494.00
2023-04-04T08:32:33.450Z,468.00
2023-04-04T08:33:44.550Z,497.00
2023-04-04T08:34:34.408Z,497.00
2023-04-04T08:35:33.413Z,502.00
2023-04-04T08:36:33.365Z,504.00
2023-04-04T08:37:33.366Z,518.00
2023-04-04T08:38:33.388Z,494.00
2023-04-04T08:39:33.346Z,541.00
2023-04-04T08:40:34.403Z,628.00
2023-04-04T08:41:33.375Z,823.00
2023-04-04T08:42:33.412Z,864.00
2023-04-04T08:43:33.467Z,848.00
2023-04-04T08:44:33.513Z,891.00
2023-04-04T08:45:33.561Z,707.00
2023-04-04T08:46:33.689Z,729.00
2023-04-04T08:47:33.748Z,887.00
2023-04-04T08:48:33.758Z,968.00
2023-04-04T08:49:33.790Z,977.00
2023-04-04T08:50:33.840Z,833.00
2023-04-04T08:51:33.909Z,612.00
2023-04-04T08:52:33.954Z,557.00
2023-04-04T08:53:34.020Z,561.00
2023-04-04T08:54:34.056Z,663.00
2023-04-04T08:55:34.145Z,1016.00
2023-04-04T08:56:34.190Z,772.00
2023-04-04T08:57:34.235Z,545.00
2023-04-04T08:58:34.505Z,511.00
2023-04-04T08:59:34.453Z,487.00
2023-04-04T09:00:34.408Z,504.00
2023-04-04T09:01:34.541Z,530.00
2023-04-04T09:02:34.655Z,543.00
2023-04-04T09:03:34.592Z,615.00
2023-04-04T09:04:34.579Z,599.00
2023-04-04T09:05:34.615Z,492.00
2023-04-04T09:06:34.641Z,500.00
2023-04-04T09:07:35.772Z,556.00
2023-04-04T09:08:34.864Z,656.00
2023-04-04T09:09:34.924Z,835.00
2023-04-04T09:10:34.919Z,1063.00
2023-04-04T09:11:34.911Z,1053.00
2023-04-04T09:12:34.932Z,1118.00
2023-04-04T09:13:35.043Z,1069.00
2023-04-04T09:14:34.966Z,930.00
2023-04-04T09:15:34.977Z,711.00
2023-04-04T09:16:35.008Z,769.00
2023-04-04T09:17:35.029Z,1014.00
2023-04-04T09:18:35.020Z,914.00
2023-04-04T09:19:35.006Z,741.00
2023-04-04T09:20:35.020Z,649.00
2023-04-04T09:21:35.018Z,884.00
2023-04-04T09:22:35.016Z,905.00
2023-04-04T09:23:35.002Z,709.00
2023-04-04T09:24:35.033Z,767.00
2023-04-04T09:25:35.014Z,730.00
2023-04-04T09:26:35.059Z,613.00
2023-04-04T09:27:35.038Z,548.00
2023-04-04T09:28:35.067Z,537.00
2023-04-04T09:29:35.085Z,580.00
2023-04-04T09:30:35.088Z,644.00
2023-04-04T09:31:35.109Z,651.00
2023-04-04T09:32:35.136Z,621.00
2023-04-04T09:33:35.088Z,619.00
2023-04-04T09:34:35.126Z,700.00
2023-04-04T09:35:35.152Z,812.00
2023-04-04T09:36:35.130Z,926.00
2023-04-04T09:37:35.123Z,762.00
2023-04-04T09:38:35.129Z,653.00
2023-04-04T09:39:35.159Z,617.00
2023-04-04T09:40:35.448Z,636.00
2023-04-04T09:41:35.208Z,627.00
2023-04-04T09:42:35.258Z,656.00
2023-04-04T09:43:35.843Z,692.00
2023-04-04T09:44:35.340Z,653.00
2023-04-04T09:45:35.392Z,598.00
2023-04-04T09:46:35.444Z,607.00
2023-04-04T09:47:35.503Z,883.00
2023-04-04T09:48:35.537Z,1010.00
2023-04-04T09:49:35.600Z,974.00
2023-04-04T09:50:35.655Z,714.00
2023-04-04T09:51:35.696Z,565.00
2023-04-04T09:52:35.808Z,498.00
2023-04-04T09:53:35.822Z,527.00
2023-04-04T09:54:40.259Z,571.00
2023-04-04T09:55:36.872Z,571.00
2023-04-04T09:56:35.875Z,575.00
2023-04-04T09:57:35.841Z,575.00
2023-04-04T09:58:35.852Z,572.00
2023-04-04T09:59:35.844Z,481.00
2023-04-04T10:00:35.862Z,514.00
2023-04-04T10:01:35.876Z,501.00
2023-04-04T10:02:35.842Z,469.00
2023-04-04T10:03:35.908Z,499.00
2023-04-04T10:04:35.960Z,494.00
2023-04-04T10:05:35.952Z,473.00
2023-04-04T10:06:35.988Z,449.00
2023-04-04T10:07:36.047Z,408.00
2023-04-04T10:08:36.104Z,438.00
2023-04-04T10:09:36.126Z,484.00
2023-04-04T10:10:36.186Z,499.00
2023-04-04T10:11:36.285Z,512.00
2023-04-04T10:12:36.292Z,552.00
2023-04-04T10:13:36.335Z,577.00
2023-04-04T10:14:36.383Z,627.00
2023-04-04T10:15:36.457Z,795.00
2023-04-04T10:16:36.466Z,866.00
2023-04-04T10:17:36.525Z,684.00
2023-04-04T10:18:36.603Z,584.00
2023-04-04T10:19:36.610Z,518.00
2023-04-04T10:20:36.694Z,489.00
2023-04-04T10:21:36.706Z,555.00
2023-04-04T10:22:36.752Z,629.00
2023-04-04T10:23:36.751Z,630.00
2023-04-04T10:24:36.798Z,647.00
2023-04-04T10:25:36.824Z,633.00
2023-04-04T10:26:37.273Z,630.00
2023-04-04T10:27:36.884Z,573.00
2023-04-04T10:28:36.969Z,431.00
2023-04-04T10:29:36.957Z,438.00
2023-04-04T10:30:37.056Z,484.00
2023-04-04T10:31:37.042Z,500.00
2023-04-04T10:32:37.025Z,499.00
2023-04-04T10:33:36.996Z,476.00
2023-04-04T10:34:37.035Z,448.00
2023-04-04T10:35:37.075Z,475.00
2023-04-04T10:36:37.043Z,526.00
2023-04-04T10:37:37.054Z,613.00
2023-04-04T10:38:37.089Z,946.00
2023-04-04T10:39:37.094Z,1434.00
2023-04-04T10:40:37.129Z,1820.00
2023-04-04T10:41:37.069Z,2024.00
2023-04-04T10:42:37.114Z,1984.00
2023-04-04T10:43:37.071Z,1864.00
2023-04-04T10:44:37.070Z,1747.00
2023-04-04T10:45:37.091Z,1621.00
2023-04-04T10:46:37.135Z,1321.00
2023-04-04T10:47:37.375Z,1048.00
2023-04-04T10:48:37.130Z,816.00
2023-04-04T10:49:37.156Z,608.00
2023-04-04T10:50:37.162Z,543.00
2023-04-04T10:51:45.126Z,519.00
2023-04-04T10:52:38.164Z,519.00
2023-04-04T10:53:37.132Z,524.00
2023-04-04T10:54:37.154Z,550.00
2023-04-04T10:55:37.451Z,604.00
2023-04-04T10:56:37.115Z,864.00
2023-04-04T10:57:37.113Z,1050.00
2023-04-04T10:58:37.115Z,1130.00
2023-04-04T10:59:37.135Z,1194.00
2023-04-04T11:00:37.093Z,1168.00
2023-04-04T11:01:37.111Z,1093.00
2023-04-04T11:02:37.185Z,1161.00
2023-04-04T11:03:37.091Z,1230.00
2023-04-04T11:04:37.227Z,1063.00
2023-04-04T11:05:37.053Z,649.00
2023-04-04T11:06:37.050Z,609.00
2023-04-04T11:07:37.064Z,712.00
2023-04-04T11:08:37.048Z,721.00
2023-04-04T11:09:37.041Z,793.00
2023-04-04T11:10:37.068Z,838.00
2023-04-04T11:11:38.150Z,940.00
2023-04-04T11:12:37.112Z,1083.00
2023-04-04T11:13:37.159Z,1170.00
2023-04-04T11:14:37.164Z,1196.00
2023-04-04T11:15:37.404Z,1272.00
2023-04-04T11:16:37.304Z,1467.00
2023-04-04T11:17:37.336Z,1732.00
2023-04-04T11:18:37.402Z,1883.00
2023-04-04T11:19:37.473Z,1824.00
2023-04-04T11:20:37.515Z,1650.00
2023-04-04T11:21:37.580Z,1640.00
2023-04-04T11:22:37.638Z,1789.00
2023-04-04T11:23:37.703Z,2001.00
2023-04-04T11:24:37.748Z,2249.00
2023-04-04T11:25:37.985Z,1994.00
2023-04-04T11:26:37.868Z,1710.00
2023-04-04T11:27:37.940Z,1432.00
2023-04-04T11:28:37.974Z,993.00
2023-04-04T11:29:38.021Z,1147.00
2023-04-04T11:30:38.063Z,1577.00
2023-04-04T11:31:38.230Z,1882.00
2023-04-04T11:32:38.187Z,2021.00
2023-04-04T11:33:38.224Z,1995.00
2023-04-04T11:34:38.252Z,1751.00
2023-04-04T11:35:38.516Z,1637.00
2023-04-04T11:36:38.317Z,1274.00
2023-04-04T11:37:38.332Z,878.00
2023-04-04T11:38:38.375Z,757.00
2023-04-04T11:39:38.427Z,823.00
2023-04-04T11:40:38.437Z,826.00
2023-04-04T11:41:38.484Z,945.00
2023-04-04T11:42:38.543Z,772.00
2023-04-04T11:43:38.555Z,884.00
2023-04-04T11:44:38.592Z,1052.00
2023-04-04T11:45:38.903Z,979.00
2023-04-04T11:46:38.698Z,1081.00
2023-04-04T11:47:38.763Z,1211.00
2023-04-04T11:48:38.735Z,1409.00
2023-04-04T11:49:38.784Z,1302.00
2023-04-04T11:50:38.818Z,1229.00
2023-04-04T11:51:38.826Z,1142.00
2023-04-04T11:52:38.852Z,1143.00
2023-04-04T11:53:38.923Z,1156.00
2023-04-04T11:54:38.879Z,1335.00
2023-04-04T11:55:39.011Z,1547.00
2023-04-04T11:56:38.894Z,1512.00
2023-04-04T11:57:38.921Z,1613.00
2023-04-04T11:58:38.908Z,1815.00
2023-04-04T11:59:38.957Z,1641.00
2023-04-04T12:00:38.945Z,1462.00
2023-04-04T12:01:38.943Z,1423.00
2023-04-04T12:02:38.988Z,1364.00
2023-04-04T12:03:39.041Z,1607.00
2023-04-04T12:04:40.460Z,1774.00
2023-04-04T12:05:39.237Z,1820.00
2023-04-04T12:06:38.939Z,1874.00
2023-04-04T12:07:38.933Z,1694.00
2023-04-04T12:08:38.923Z,1593.00
2023-04-04T12:09:38.931Z,1399.00
2023-04-04T12:10:38.908Z,1442.00
2023-04-04T12:11:38.904Z,1590.00
2023-04-04T12:12:38.885Z,1915.00
2023-04-04T12:13:38.869Z,2192.00